Guasti, California
Current Conditions -  °F | °C
As of 6:53 AM on Saturday 25 Oct 2014 (Local Time) from KONT Reporting Station
Broken Clouds Broken Clouds  
Wind Chill: 67°   Ceiling: 9500
Heat Index: 67°   Visibility: 10mi
Dew Point: 41°   Wind: 0mph
Humidity: 39%   Direction: NA
Pressure: 30.01"   Gusts: NA
Location:  34.07°N, 117.59°W
Report Text: KONT 251353Z 00000KT 10SM BKN095 19/05 A3001 RMK AO2 SLP150 T01940050
Loading
Personal Weather Stations






























Interactive Weather Map
Tropical Storm Tracking
New forecast layout! Learn more

10-Day Weather Forecast

Advertisements
Track Severe Weather on mobile